Aeroporto :
LOGIN :

Iscrizione | Disclaimer

   EN    FR    IT 

 










Sommario :    VFR   VFR Marginale   IFR   IFR Intensivo   IFR Molto Intensivo
Visibilità : 
Base nubi : 
>= 8 km
>= 3000ft
5 / 8 km
1000 / 3000 ft
1500m / 5 km
500 / 1000 ft
800 / 1500m
200 / 500 ft
< 800m
< 200 ft
Simboli :   Temporali  Nebbia  Neve Forte  Precipitazioni Forti  Vento > 20 kt
SIGMETs :   Varie  Temporali  Ghiacco  Turbolenza  Onda orograficha  Ceneri Vulcaniche






- Altitudine del aeroporto : 87 ft
- Codice IATA : FSC


LFKF - Figari

ULTIMO METAR :
  • 050700Z AUTO 27020KT 240V310 9999 BKN028 BKN035 BKN045 21/15 Q1001 BECMG 26017G27KT

METARs OBSOLETI :
  • 050630Z AUTO 27019G31KT 240V300 9999 BKN025 BKN031 BKN039 20/15 Q1000 NOSIG
  • 050600Z AUTO 26018KT 230V290 9999 BKN024/// BKN034/// BKN043/// ///TCU 20/15 Q1000 BECMG 26017G27KT FEW030
  • 050530Z AUTO 26018KT 9999 FEW024/// SCT030/// ///CB 19/15 Q1000 BECMG 26017G27KT FEW030
  • 050500Z AUTO 27017KT 230V290 9999 FEW027/// SCT045/// BKN056/// ///TCU 19/15 Q1000 BECMG 26017G27KT FEW030
  • 050430Z AUTO 26014KT 9999 FEW028/// SCT039/// ///CB 18/14 Q1000 BECMG 26017G27KT FEW030
  • 050400Z AUTO 26014KT 9999 FEW027/// SCT034/// BKN110/// ///CB 18/14 Q0999 BECMG 26017G27KT FEW030

TAF AMD TAF LFKF
Valido dal 05 a 05 ore il 06 a 03 ore UTC


050553Z 0505/0603 26017G27KT 9999 FEW030
TEMPO 0505/0507 SCT020CB
TEMPO 0509/0515 28020G40KT



MetMap, La meteo Aeronautica in un colpo d'occhio ! - Copyright ORBIFLY Dicembre 2007 - Disclaimer

ORBIFLY MET'MAP TEAM :

Programmazione e sviluppo : Alexandra Zaïnal
Concezione : Baudouin d'Aumeries
Aiuto per la programmazione : Marc-Olivier Méhu
Supporto tecnico e logistico : Manuel Goepfert
Aiuto per la traduzione : Arnaldo La Scala

Contatto : metmap@orbifly.com




FONTI E CREDITI :

   NOAA